createdAt,value
2022-09-11T00:04:36.986Z,100210.03
2022-09-11T00:09:39.547Z,100210.91
2022-09-11T00:14:42.114Z,100199.63
2022-09-11T00:19:44.662Z,100211.72
2022-09-11T00:24:47.555Z,100192.69
2022-09-11T00:29:50.451Z,100208.34
2022-09-11T00:34:52.998Z,100199.75
2022-09-11T00:39:55.728Z,100202.06
2022-09-11T00:45:02.324Z,100202.03
2022-09-11T00:50:14.244Z,100209.75
2022-09-11T00:55:20.310Z,100182.13
2022-09-11T01:00:23.198Z,100207.19
2022-09-11T01:05:29.134Z,100183.88
2022-09-11T01:11:06.048Z,100206.25
2022-09-11T01:16:20.436Z,100205.25
2022-09-11T01:21:34.539Z,100207.81
2022-09-11T01:26:49.349Z,100199.25
2022-09-11T01:32:03.929Z,100184.53
2022-09-11T01:37:36.014Z,100171.38
2022-09-11T01:42:43.403Z,100182.81
2022-09-11T01:47:49.592Z,100180.94
2022-09-11T01:52:58.326Z,100178.22
2022-09-11T01:58:21.243Z,100180.97
2022-09-11T02:03:45.349Z,100172.22
2022-09-11T02:08:54.877Z,100176.56
2022-09-11T02:14:07.289Z,100182.50
2022-09-11T02:19:33.785Z,100184.38
2022-09-11T02:24:36.396Z,100180.97
2022-09-11T02:29:39.582Z,100163.81
2022-09-11T02:34:45.701Z,100143.94
2022-09-11T02:39:54.643Z,100180.16
2022-09-11T02:44:57.167Z,100173.25
2022-09-11T02:50:22.142Z,100162.66
2022-09-11T02:55:50.077Z,100171.47
2022-09-11T03:00:55.637Z,100166.38
2022-09-11T03:05:58.459Z,100146.44
2022-09-11T03:11:01.779Z,100162.16
2022-09-11T03:16:07.921Z,100165.81
2022-09-11T03:21:11.478Z,100153.16
2022-09-11T03:26:14.333Z,100158.56
2022-09-11T03:31:17.574Z,100156.41
2022-09-11T03:36:21.168Z,100126.56
2022-09-11T03:41:23.860Z,100118.00
2022-09-11T03:46:26.504Z,100139.66
2022-09-11T03:51:29.159Z,100131.13
2022-09-11T03:56:32.611Z,100133.00
2022-09-11T04:01:35.808Z,100141.69
2022-09-11T04:06:38.521Z,100130.66
2022-09-11T04:11:42.177Z,100140.34
2022-09-11T04:16:54.020Z,100105.16
2022-09-11T04:21:57.141Z,100130.34
2022-09-11T04:27:03.409Z,100131.38
2022-09-11T04:32:07.206Z,100131.41
2022-09-11T04:37:11.904Z,100135.72
2022-09-11T04:42:16.048Z,100108.97
2022-09-11T04:47:21.111Z,100131.34
2022-09-11T04:52:25.288Z,100127.88
2022-09-11T04:57:31.288Z,100137.28
2022-09-11T05:02:36.297Z,100133.75
2022-09-11T05:07:40.173Z,100135.38
2022-09-11T05:12:44.617Z,100110.31
2022-09-11T05:17:48.511Z,100121.31
2022-09-11T05:22:54.260Z,100116.75
2022-09-11T05:27:57.182Z,100127.03
2022-09-11T05:33:00.388Z,100097.69
2022-09-11T05:38:03.302Z,100121.50
2022-09-11T05:43:06.368Z,100120.22
2022-09-11T05:48:09.802Z,100122.69
2022-09-11T05:53:16.061Z,100111.16
2022-09-11T05:58:19.915Z,100103.84
2022-09-11T06:03:23.184Z,100101.19
2022-09-11T06:08:25.848Z,100104.66
2022-09-11T06:13:31.893Z,100102.84
2022-09-11T06:18:36.877Z,100090.28
2022-09-11T06:23:42.366Z,100079.44
2022-09-11T06:28:48.046Z,100090.09
2022-09-11T06:33:52.011Z,100093.38
2022-09-11T06:38:56.942Z,100090.28
2022-09-11T06:44:01.769Z,100088.25
2022-09-11T06:49:06.936Z,100084.44
2022-09-11T06:54:29.556Z,100074.97
2022-09-11T06:59:33.621Z,100070.28
2022-09-11T07:04:36.468Z,100074.81
2022-09-11T07:09:39.254Z,100071.13
2022-09-11T07:14:42.642Z,100067.47
2022-09-11T07:19:50.997Z,100059.19
2022-09-11T07:24:54.836Z,100030.75
2022-09-11T07:29:58.259Z,100048.41
2022-09-11T07:35:02.679Z,100055.03
2022-09-11T07:40:06.030Z,100051.69
2022-09-11T07:45:10.324Z,100030.53
2022-09-11T07:50:13.793Z,100039.81
2022-09-11T07:55:19.086Z,100035.88
2022-09-11T08:00:22.387Z,100026.06
2022-09-11T08:05:33.677Z,100017.94
2022-09-11T08:10:41.027Z,100016.31
2022-09-11T08:15:51.410Z,100012.81
2022-09-11T08:21:04.642Z,99979.94
2022-09-11T08:26:12.736Z,100006.41
2022-09-11T08:31:20.685Z,100000.09
2022-09-11T08:36:25.600Z,99992.91
2022-09-11T08:41:53.573Z,99992.38
2022-09-11T08:47:08.319Z,99982.19
2022-09-11T08:52:15.617Z,99986.84
2022-09-11T08:57:40.927Z,99981.34
2022-09-11T09:03:03.248Z,99971.91
2022-09-11T09:08:33.926Z,99986.81
2022-09-11T09:14:23.096Z,99972.44
2022-09-11T09:19:39.548Z,99978.78
2022-09-11T09:24:48.748Z,99965.50
2022-09-11T09:29:55.870Z,99970.69
2022-09-11T09:35:03.050Z,99980.94
2022-09-11T09:40:11.113Z,99974.59
2022-09-11T09:45:57.112Z,99973.84
2022-09-11T09:50:59.706Z,99972.47
2022-09-11T09:56:05.382Z,99959.25
2022-09-11T10:01:46.175Z,99978.03
2022-09-11T10:06:59.582Z,99974.34
2022-09-11T10:12:09.224Z,99955.75
2022-09-11T10:17:24.499Z,99947.25
2022-09-11T10:22:32.402Z,99954.69
2022-09-11T10:27:45.279Z,99963.03
2022-09-11T10:32:47.863Z,99963.50
2022-09-11T10:38:03.202Z,99970.56
2022-09-11T10:43:08.270Z,99956.25
2022-09-11T10:48:23.602Z,99917.09
2022-09-11T10:53:26.425Z,99934.47
2022-09-11T10:58:34.393Z,99959.88
2022-09-11T11:03:37.708Z,99940.66
2022-09-11T11:09:11.178Z,99944.56
2022-09-11T11:14:41.933Z,99920.34
2022-09-11T11:20:13.902Z,99925.69
2022-09-11T11:25:17.689Z,99907.59
2022-09-11T11:30:24.132Z,99920.03
2022-09-11T11:35:52.403Z,99922.59
2022-09-11T11:41:03.475Z,99914.47
2022-09-11T11:46:19.875Z,99911.31
2022-09-11T11:51:28.140Z,99913.19
2022-09-11T11:56:59.914Z,99882.41
2022-09-11T12:02:11.768Z,99894.50
2022-09-11T12:07:24.339Z,99893.78
2022-09-11T12:12:31.515Z,99894.72
2022-09-11T12:17:36.484Z,99891.59
2022-09-11T12:22:41.866Z,99888.22
2022-09-11T12:27:45.511Z,99892.19
2022-09-11T12:32:51.845Z,99879.59
2022-09-11T12:38:00.229Z,99888.66
2022-09-11T12:43:29.565Z,99881.19
2022-09-11T12:48:40.611Z,99880.69
2022-09-11T12:53:48.089Z,99857.88
2022-09-11T12:59:07.744Z,99875.72
2022-09-11T13:04:10.211Z,99882.47
2022-09-11T13:09:28.689Z,99875.34
2022-09-11T13:14:31.167Z,99884.91
2022-09-11T13:19:39.326Z,99882.22
2022-09-11T13:24:41.913Z,99865.72
2022-09-11T13:29:48.513Z,99873.66
2022-09-11T13:34:58.833Z,99867.41
2022-09-11T13:40:04.298Z,99867.41
2022-09-11T13:45:08.068Z,99861.94
2022-09-11T13:50:13.813Z,99856.00
2022-09-11T13:55:20.567Z,99845.84
2022-09-11T14:00:42.192Z,99830.47
2022-09-11T14:06:11.980Z,99811.59
2022-09-11T14:11:24.396Z,99832.38
2022-09-11T14:16:32.147Z,99840.47
2022-09-11T14:21:40.472Z,99833.84
2022-09-11T14:26:43.066Z,99822.94
2022-09-11T14:31:45.891Z,99792.25
2022-09-11T14:37:11.962Z,99815.59
2022-09-11T14:42:21.780Z,99800.91
2022-09-11T14:47:29.702Z,99814.09
2022-09-11T14:52:32.551Z,99810.91
2022-09-11T14:57:35.390Z,99804.53
2022-09-11T15:02:37.961Z,99801.47
2022-09-11T15:07:40.545Z,99802.72
2022-09-11T15:12:43.150Z,99785.72
2022-09-11T15:17:47.477Z,99785.97
2022-09-11T15:22:50.272Z,99780.25
2022-09-11T15:27:53.371Z,99776.97
2022-09-11T15:32:56.028Z,99775.63
2022-09-11T15:37:59.501Z,99772.53
2022-09-11T15:43:02.211Z,99770.94
2022-09-11T15:48:04.743Z,99776.56
2022-09-11T15:53:07.618Z,99770.84
2022-09-11T15:58:10.174Z,99766.84
2022-09-11T16:03:12.934Z,99766.38
2022-09-11T16:08:16.016Z,99773.53
2022-09-11T16:13:18.984Z,99762.75
2022-09-11T16:18:21.542Z,99773.22
2022-09-11T16:23:25.811Z,99768.00
2022-09-11T16:28:28.473Z,99778.56
2022-09-11T16:33:32.386Z,99779.59
2022-09-11T16:38:37.598Z,99778.91
2022-09-11T16:43:42.168Z,99782.41
2022-09-11T16:48:45.342Z,99789.53
2022-09-11T16:53:47.971Z,99785.31
2022-09-11T16:58:51.061Z,99784.78
2022-09-11T17:03:56.236Z,99790.16
2022-09-11T17:09:01.514Z,99787.63
2022-09-11T17:14:04.462Z,99784.28
2022-09-11T17:19:07.794Z,99779.28
2022-09-11T17:24:10.599Z,99782.72
2022-09-11T17:29:13.998Z,99783.78
2022-09-11T17:34:17.210Z,99785.47
2022-09-11T17:39:19.788Z,99788.09
2022-09-11T17:44:24.685Z,99777.69
2022-09-11T17:49:27.230Z,99788.91
2022-09-11T17:54:29.835Z,99779.53
2022-09-11T17:59:32.950Z,99780.41
2022-09-11T18:04:36.083Z,99784.00
2022-09-11T18:09:38.607Z,99779.75
2022-09-11T18:14:43.420Z,99767.81
2022-09-11T18:19:46.365Z,99767.78
2022-09-11T18:24:50.942Z,99769.63
2022-09-11T18:29:54.646Z,99765.38
2022-09-11T18:35:00.134Z,99775.03
2022-09-11T18:40:03.278Z,99767.31
2022-09-11T18:45:07.427Z,99768.31
2022-09-11T18:50:10.277Z,99766.69
2022-09-11T18:55:12.849Z,99763.34
2022-09-11T19:00:17.922Z,99768.53
2022-09-11T19:05:21.572Z,99760.81
2022-09-11T19:10:24.745Z,99753.19
2022-09-11T19:15:27.384Z,99754.84
2022-09-11T19:20:30.171Z,99757.44
2022-09-11T19:25:35.397Z,99759.16
2022-09-11T19:30:41.272Z,99737.75
2022-09-11T19:36:03.689Z,99753.19
2022-09-11T19:41:12.863Z,99750.53
2022-09-11T19:46:21.472Z,99742.78
2022-09-11T19:51:27.655Z,99753.13
2022-09-11T19:56:33.050Z,99746.06
2022-09-11T20:01:36.184Z,99740.00
2022-09-11T20:06:39.053Z,99744.16
2022-09-11T20:11:42.086Z,99711.59
2022-09-11T20:16:44.690Z,99723.44
2022-09-11T20:21:47.231Z,99734.41
2022-09-11T20:26:52.250Z,99735.16
2022-09-11T20:31:56.010Z,99729.16
2022-09-11T20:37:00.703Z,99734.31
2022-09-11T20:42:04.352Z,99731.69
2022-09-11T20:47:07.233Z,99722.09
2022-09-11T20:52:11.335Z,99703.16
2022-09-11T20:57:13.938Z,99720.44
2022-09-11T21:02:17.735Z,99715.38
2022-09-11T21:07:20.776Z,99707.66
2022-09-11T21:12:23.504Z,99724.81
2022-09-11T21:17:26.145Z,99730.84
2022-09-11T21:22:28.732Z,99726.53
2022-09-11T21:27:31.281Z,99697.25
2022-09-11T21:32:33.867Z,99712.75
2022-09-11T21:37:36.422Z,99713.63
2022-09-11T21:42:39.366Z,99712.66
2022-09-11T21:47:42.338Z,99720.56
2022-09-11T21:52:44.858Z,99721.63
2022-09-11T21:57:47.455Z,99727.56
2022-09-11T22:02:49.993Z,99725.81
2022-09-11T22:07:53.161Z,99731.09
2022-09-11T22:12:55.906Z,99734.66
2022-09-11T22:17:58.406Z,99735.53
2022-09-11T22:23:00.990Z,99737.28
2022-09-11T22:28:06.753Z,99730.53
2022-09-11T22:33:10.233Z,99734.88
2022-09-11T22:38:13.257Z,99731.59
2022-09-11T22:43:16.822Z,99727.41
2022-09-11T22:48:19.451Z,99727.50
2022-09-11T22:53:22.063Z,99739.56
2022-09-11T22:58:24.989Z,99743.97
2022-09-11T23:03:27.556Z,99749.19
2022-09-11T23:08:39.138Z,99733.78
2022-09-11T23:13:43.653Z,99735.63
2022-09-11T23:18:46.877Z,99733.38
2022-09-11T23:23:54.253Z,99745.63
2022-09-11T23:28:58.544Z,99732.78
2022-09-11T23:34:03.438Z,99739.72
2022-09-11T23:39:06.005Z,99741.53
2022-09-11T23:44:09.962Z,99736.47
2022-09-11T23:49:13.182Z,99739.13
2022-09-11T23:54:16.139Z,99737.47
2022-09-11T23:59:18.830Z,99730.72
